sensor_id;sensor_type;location;lat;lon;timestamp;temperature;humidity
10873;DHT22;34586;53.616;10.032;2024-01-27T00:02:18;6.20;99.90
10873;DHT22;34586;53.616;10.032;2024-01-27T00:04:44;6.20;99.90
10873;DHT22;34586;53.616;10.032;2024-01-27T00:07:09;6.20;99.90
10873;DHT22;34586;53.616;10.032;2024-01-27T00:09:35;6.30;99.90
10873;DHT22;34586;53.616;10.032;2024-01-27T00:12:00;6.30;99.90
10873;DHT22;34586;53.616;10.032;2024-01-27T00:14:27;6.30;99.90
10873;DHT22;34586;53.616;10.032;2024-01-27T00:16:53;6.30;99.90
10873;DHT22;34586;53.616;10.032;2024-01-27T00:19:19;6.30;99.90
10873;DHT22;34586;53.616;10.032;2024-01-27T00:21:44;6.40;99.90
10873;DHT22;34586;53.616;10.032;2024-01-27T00:24:10;6.20;99.90
10873;DHT22;34586;53.616;10.032;2024-01-27T00:26:35;6.30;99.90
10873;DHT22;34586;53.616;10.032;2024-01-27T00:29:01;6.30;99.90
10873;DHT22;34586;53.616;10.032;2024-01-27T00:31:26;6.30;99.90
10873;DHT22;34586;53.616;10.032;2024-01-27T00:33:52;6.30;99.90
10873;DHT22;34586;53.616;10.032;2024-01-27T00:36:17;6.40;99.90
10873;DHT22;34586;53.616;10.032;2024-01-27T00:38:44;6.40;99.90
10873;DHT22;34586;53.616;10.032;2024-01-27T00:41:15;6.30;99.90
10873;DHT22;34586;53.616;10.032;2024-01-27T00:43:40;6.40;99.90
10873;DHT22;34586;53.616;10.032;2024-01-27T00:46:06;6.40;99.90
10873;DHT22;34586;53.616;10.032;2024-01-27T00:48:31;6.40;99.90
10873;DHT22;34586;53.616;10.032;2024-01-27T00:50:57;6.40;99.90
10873;DHT22;34586;53.616;10.032;2024-01-27T00:53:23;6.40;99.90
10873;DHT22;34586;53.616;10.032;2024-01-27T00:55:48;6.40;99.90
10873;DHT22;34586;53.616;10.032;2024-01-27T00:58:16;6.40;99.90
10873;DHT22;34586;53.616;10.032;2024-01-27T01:00:41;6.50;99.90
10873;DHT22;34586;53.616;10.032;2024-01-27T01:03:07;6.40;99.90
10873;DHT22;34586;53.616;10.032;2024-01-27T01:05:32;6.50;99.90
10873;DHT22;34586;53.616;10.032;2024-01-27T01:07:58;6.50;99.90
10873;DHT22;34586;53.616;10.032;2024-01-27T01:10:24;6.50;99.90
10873;DHT22;34586;53.616;10.032;2024-01-27T01:12:49;6.60;99.90
10873;DHT22;34586;53.616;10.032;2024-01-27T01:15:15;6.50;99.90
10873;DHT22;34586;53.616;10.032;2024-01-27T01:17:41;6.50;99.90
10873;DHT22;34586;53.616;10.032;2024-01-27T01:20:07;6.50;99.90
10873;DHT22;34586;53.616;10.032;2024-01-27T01:22:33;6.50;99.90
10873;DHT22;34586;53.616;10.032;2024-01-27T01:24:59;6.50;99.90
10873;DHT22;34586;53.616;10.032;2024-01-27T01:27:25;6.50;99.90
10873;DHT22;34586;53.616;10.032;2024-01-27T01:29:51;6.50;99.90
10873;DHT22;34586;53.616;10.032;2024-01-27T01:32:16;6.50;99.90
10873;DHT22;34586;53.616;10.032;2024-01-27T01:34:42;6.50;99.90
10873;DHT22;34586;53.616;10.032;2024-01-27T01:37:07;6.60;99.90
10873;DHT22;34586;53.616;10.032;2024-01-27T01:39:33;6.50;99.90
10873;DHT22;34586;53.616;10.032;2024-01-27T01:41:58;6.60;99.90
10873;DHT22;34586;53.616;10.032;2024-01-27T01:44:29;6.60;99.90
10873;DHT22;34586;53.616;10.032;2024-01-27T01:46:56;6.50;99.90
10873;DHT22;34586;53.616;10.032;2024-01-27T01:49:22;6.50;99.90
10873;DHT22;34586;53.616;10.032;2024-01-27T01:51:48;6.50;99.90
10873;DHT22;34586;53.616;10.032;2024-01-27T01:54:13;6.60;99.90
10873;DHT22;34586;53.616;10.032;2024-01-27T01:56:39;6.60;99.90
10873;DHT22;34586;53.616;10.032;2024-01-27T01:59:05;6.60;99.90
10873;DHT22;34586;53.616;10.032;2024-01-27T02:01:31;6.50;99.90
10873;DHT22;34586;53.616;10.032;2024-01-27T02:03:57;6.50;99.90
10873;DHT22;34586;53.616;10.032;2024-01-27T02:06:23;6.60;99.90
10873;DHT22;34586;53.616;10.032;2024-01-27T02:08:49;6.60;99.90
10873;DHT22;34586;53.616;10.032;2024-01-27T02:11:15;6.60;99.90
10873;DHT22;34586;53.616;10.032;2024-01-27T02:13:41;6.70;99.90
10873;DHT22;34586;53.616;10.032;2024-01-27T02:16:07;6.70;99.90
10873;DHT22;34586;53.616;10.032;2024-01-27T02:18:32;6.70;99.90
10873;DHT22;34586;53.616;10.032;2024-01-27T02:20:58;6.70;99.90
10873;DHT22;34586;53.616;10.032;2024-01-27T02:23:23;6.70;99.90
10873;DHT22;34586;53.616;10.032;2024-01-27T02:25:49;6.60;99.90
10873;DHT22;34586;53.616;10.032;2024-01-27T02:28:16;6.60;99.90
10873;DHT22;34586;53.616;10.032;2024-01-27T02:30:42;6.60;99.90
10873;DHT22;34586;53.616;10.032;2024-01-27T02:33:08;6.60;99.90
10873;DHT22;34586;53.616;10.032;2024-01-27T02:35:33;6.60;99.90
10873;DHT22;34586;53.616;10.032;2024-01-27T02:37:59;6.70;99.90
10873;DHT22;34586;53.616;10.032;2024-01-27T02:40:25;6.70;99.90
10873;DHT22;34586;53.616;10.032;2024-01-27T02:42:50;6.70;99.90
10873;DHT22;34586;53.616;10.032;2024-01-27T02:45:16;6.70;99.90
10873;DHT22;34586;53.616;10.032;2024-01-27T02:47:42;6.60;99.90
10873;DHT22;34586;53.616;10.032;2024-01-27T02:50:08;6.70;99.90
10873;DHT22;34586;53.616;10.032;2024-01-27T02:52:34;6.60;99.90
10873;DHT22;34586;53.616;10.032;2024-01-27T02:54:59;6.60;99.90
10873;DHT22;34586;53.616;10.032;2024-01-27T02:57:25;6.60;99.90
10873;DHT22;34586;53.616;10.032;2024-01-27T02:59:51;6.60;99.90
10873;DHT22;34586;53.616;10.032;2024-01-27T03:02:16;6.50;99.90
10873;DHT22;34586;53.616;10.032;2024-01-27T03:04:42;6.50;99.90
10873;DHT22;34586;53.616;10.032;2024-01-27T03:07:07;6.50;99.90
10873;DHT22;34586;53.616;10.032;2024-01-27T03:09:33;6.60;99.90
10873;DHT22;34586;53.616;10.032;2024-01-27T03:11:59;6.50;99.90
10873;DHT22;34586;53.616;10.032;2024-01-27T03:14:24;6.50;99.90
10873;DHT22;34586;53.616;10.032;2024-01-27T03:16:51;6.50;99.90
10873;DHT22;34586;53.616;10.032;2024-01-27T03:19:16;6.60;99.90
10873;DHT22;34586;53.616;10.032;2024-01-27T03:21:42;6.60;99.90
10873;DHT22;34586;53.616;10.032;2024-01-27T03:24:07;6.60;99.90
10873;DHT22;34586;53.616;10.032;2024-01-27T03:26:33;6.70;99.90
10873;DHT22;34586;53.616;10.032;2024-01-27T03:28:59;6.50;99.90
10873;DHT22;34586;53.616;10.032;2024-01-27T03:31:30;6.50;99.90
10873;DHT22;34586;53.616;10.032;2024-01-27T03:33:57;6.40;99.90
10873;DHT22;34586;53.616;10.032;2024-01-27T03:36:23;6.40;99.90
10873;DHT22;34586;53.616;10.032;2024-01-27T03:38:48;6.40;99.90
10873;DHT22;34586;53.616;10.032;2024-01-27T03:41:14;6.40;99.90
10873;DHT22;34586;53.616;10.032;2024-01-27T03:43:39;6.40;99.90
10873;DHT22;34586;53.616;10.032;2024-01-27T03:46:05;6.40;99.90
10873;DHT22;34586;53.616;10.032;2024-01-27T03:48:30;6.40;99.90
10873;DHT22;34586;53.616;10.032;2024-01-27T03:50:56;6.40;99.90
10873;DHT22;34586;53.616;10.032;2024-01-27T03:53:22;6.40;99.90
10873;DHT22;34586;53.616;10.032;2024-01-27T03:55:47;6.40;99.90
10873;DHT22;34586;53.616;10.032;2024-01-27T03:58:13;6.40;99.90
10873;DHT22;34586;53.616;10.032;2024-01-27T04:00:38;6.40;99.90
10873;DHT22;34586;53.616;10.032;2024-01-27T04:03:04;6.40;99.90
10873;DHT22;34586;53.616;10.032;2024-01-27T04:05:30;6.30;99.90
10873;DHT22;34586;53.616;10.032;2024-01-27T04:07:56;6.30;99.90
10873;DHT22;34586;53.616;10.032;2024-01-27T04:10:22;6.30;99.90
10873;DHT22;34586;53.616;10.032;2024-01-27T04:12:48;6.30;99.90
10873;DHT22;34586;53.616;10.032;2024-01-27T04:15:14;6.20;99.90
10873;DHT22;34586;53.616;10.032;2024-01-27T04:17:41;6.20;99.90
10873;DHT22;34586;53.616;10.032;2024-01-27T04:20:07;6.20;99.90
10873;DHT22;34586;53.616;10.032;2024-01-27T04:22:34;6.30;99.90
10873;DHT22;34586;53.616;10.032;2024-01-27T04:25:00;6.20;99.90
10873;DHT22;34586;53.616;10.032;2024-01-27T04:27:27;6.10;99.90
10873;DHT22;34586;53.616;10.032;2024-01-27T04:29:53;6.10;99.90
10873;DHT22;34586;53.616;10.032;2024-01-27T04:32:18;6.20;99.90
10873;DHT22;34586;53.616;10.032;2024-01-27T04:34:44;6.20;99.90
10873;DHT22;34586;53.616;10.032;2024-01-27T04:37:09;6.20;99.90
10873;DHT22;34586;53.616;10.032;2024-01-27T04:39:35;6.20;99.90
10873;DHT22;34586;53.616;10.032;2024-01-27T04:42:01;6.20;99.90
10873;DHT22;34586;53.616;10.032;2024-01-27T04:44:26;6.10;99.90
10873;DHT22;34586;53.616;10.032;2024-01-27T04:46:52;6.10;99.90
10873;DHT22;34586;53.616;10.032;2024-01-27T04:49:18;6.10;99.90
10873;DHT22;34586;53.616;10.032;2024-01-27T04:51:43;6.20;99.90
10873;DHT22;34586;53.616;10.032;2024-01-27T04:54:09;6.10;99.90
10873;DHT22;34586;53.616;10.032;2024-01-27T04:56:35;6.10;99.90
10873;DHT22;34586;53.616;10.032;2024-01-27T04:59:01;6.10;99.90
10873;DHT22;34586;53.616;10.032;2024-01-27T05:01:27;6.00;99.90
10873;DHT22;34586;53.616;10.032;2024-01-27T05:03:53;5.90;99.90
10873;DHT22;34586;53.616;10.032;2024-01-27T05:06:19;6.00;99.90
10873;DHT22;34586;53.616;10.032;2024-01-27T05:08:44;6.00;99.90
10873;DHT22;34586;53.616;10.032;2024-01-27T05:11:10;6.00;99.90
10873;DHT22;34586;53.616;10.032;2024-01-27T05:13:36;6.00;99.90
10873;DHT22;34586;53.616;10.032;2024-01-27T05:16:03;6.00;99.90
10873;DHT22;34586;53.616;10.032;2024-01-27T05:18:29;6.00;99.90
10873;DHT22;34586;53.616;10.032;2024-01-27T05:20:54;5.90;99.90
10873;DHT22;34586;53.616;10.032;2024-01-27T05:23:20;6.00;99.90
10873;DHT22;34586;53.616;10.032;2024-01-27T05:25:46;6.00;99.90
10873;DHT22;34586;53.616;10.032;2024-01-27T05:28:11;5.80;99.90
10873;DHT22;34586;53.616;10.032;2024-01-27T05:30:37;5.80;99.90
10873;DHT22;34586;53.616;10.032;2024-01-27T05:33:02;5.70;99.90
10873;DHT22;34586;53.616;10.032;2024-01-27T05:35:29;5.70;99.90
10873;DHT22;34586;53.616;10.032;2024-01-27T05:37:55;5.60;99.90
10873;DHT22;34586;53.616;10.032;2024-01-27T05:40:20;5.40;99.90
10873;DHT22;34586;53.616;10.032;2024-01-27T05:42:46;5.40;99.90
10873;DHT22;34586;53.616;10.032;2024-01-27T05:45:12;5.40;99.90
10873;DHT22;34586;53.616;10.032;2024-01-27T05:47:38;5.30;99.90
10873;DHT22;34586;53.616;10.032;2024-01-27T05:50:04;5.20;99.90
10873;DHT22;34586;53.616;10.032;2024-01-27T05:52:30;5.20;99.90
10873;DHT22;34586;53.616;10.032;2024-01-27T05:54:55;5.20;99.90
10873;DHT22;34586;53.616;10.032;2024-01-27T05:57:21;5.10;99.90
10873;DHT22;34586;53.616;10.032;2024-01-27T05:59:47;5.20;99.90
10873;DHT22;34586;53.616;10.032;2024-01-27T06:02:12;5.20;99.90
10873;DHT22;34586;53.616;10.032;2024-01-27T06:04:38;5.20;99.90
10873;DHT22;34586;53.616;10.032;2024-01-27T06:07:04;5.20;99.90
10873;DHT22;34586;53.616;10.032;2024-01-27T06:09:29;5.10;99.90
10873;DHT22;34586;53.616;10.032;2024-01-27T06:11:59;5.10;99.90
10873;DHT22;34586;53.616;10.032;2024-01-27T06:14:24;5.10;99.90
10873;DHT22;34586;53.616;10.032;2024-01-27T06:16:50;5.10;99.90
10873;DHT22;34586;53.616;10.032;2024-01-27T06:19:16;5.00;99.90
10873;DHT22;34586;53.616;10.032;2024-01-27T06:21:42;5.10;99.90
10873;DHT22;34586;53.616;10.032;2024-01-27T06:24:07;5.10;99.90
10873;DHT22;34586;53.616;10.032;2024-01-27T06:26:33;5.10;99.90
10873;DHT22;34586;53.616;10.032;2024-01-27T06:28:59;5.10;99.90
10873;DHT22;34586;53.616;10.032;2024-01-27T06:31:25;5.10;99.90
10873;DHT22;34586;53.616;10.032;2024-01-27T06:33:51;5.10;99.90
10873;DHT22;34586;53.616;10.032;2024-01-27T06:36:16;5.10;99.90
10873;DHT22;34586;53.616;10.032;2024-01-27T06:38:42;5.10;99.90
10873;DHT22;34586;53.616;10.032;2024-01-27T06:41:08;5.10;99.90
10873;DHT22;34586;53.616;10.032;2024-01-27T06:43:33;5.00;99.90
10873;DHT22;34586;53.616;10.032;2024-01-27T06:45:59;5.00;99.90
10873;DHT22;34586;53.616;10.032;2024-01-27T06:48:24;5.00;99.90
10873;DHT22;34586;53.616;10.032;2024-01-27T06:50:53;4.90;99.90
10873;DHT22;34586;53.616;10.032;2024-01-27T06:53:19;4.90;99.90
10873;DHT22;34586;53.616;10.032;2024-01-27T06:55:45;4.80;99.90
10873;DHT22;34586;53.616;10.032;2024-01-27T06:58:11;4.70;99.90
10873;DHT22;34586;53.616;10.032;2024-01-27T07:00:36;4.80;99.90
10873;DHT22;34586;53.616;10.032;2024-01-27T07:03:02;4.70;99.90
10873;DHT22;34586;53.616;10.032;2024-01-27T07:05:28;4.80;99.90
10873;DHT22;34586;53.616;10.032;2024-01-27T07:07:53;4.80;99.90
10873;DHT22;34586;53.616;10.032;2024-01-27T07:10:19;4.70;99.90
10873;DHT22;34586;53.616;10.032;2024-01-27T07:12:45;4.70;99.90
10873;DHT22;34586;53.616;10.032;2024-01-27T07:15:11;4.60;99.90
10873;DHT22;34586;53.616;10.032;2024-01-27T07:17:36;4.60;99.90
10873;DHT22;34586;53.616;10.032;2024-01-27T07:20:02;4.70;99.90
10873;DHT22;34586;53.616;10.032;2024-01-27T07:22:28;4.60;99.90
10873;DHT22;34586;53.616;10.032;2024-01-27T07:24:54;4.60;99.90
10873;DHT22;34586;53.616;10.032;2024-01-27T07:27:21;4.60;99.90
10873;DHT22;34586;53.616;10.032;2024-01-27T07:29:47;4.60;99.90
10873;DHT22;34586;53.616;10.032;2024-01-27T07:32:13;4.60;99.90
10873;DHT22;34586;53.616;10.032;2024-01-27T07:34:41;4.60;99.90
10873;DHT22;34586;53.616;10.032;2024-01-27T07:37:07;4.60;99.90
10873;DHT22;34586;53.616;10.032;2024-01-27T07:39:33;4.60;99.90
10873;DHT22;34586;53.616;10.032;2024-01-27T07:41:59;4.60;99.90
10873;DHT22;34586;53.616;10.032;2024-01-27T07:44:24;4.60;99.90
10873;DHT22;34586;53.616;10.032;2024-01-27T07:46:50;4.50;99.90
10873;DHT22;34586;53.616;10.032;2024-01-27T07:49:15;4.60;99.90
10873;DHT22;34586;53.616;10.032;2024-01-27T07:51:41;4.60;99.90
10873;DHT22;34586;53.616;10.032;2024-01-27T07:54:07;4.60;99.90
10873;DHT22;34586;53.616;10.032;2024-01-27T07:56:33;4.60;99.90
10873;DHT22;34586;53.616;10.032;2024-01-27T07:58:58;4.60;99.90
10873;DHT22;34586;53.616;10.032;2024-01-27T08:01:24;4.60;99.90
10873;DHT22;34586;53.616;10.032;2024-01-27T08:03:49;4.60;99.90
10873;DHT22;34586;53.616;10.032;2024-01-27T08:06:17;4.60;99.90
10873;DHT22;34586;53.616;10.032;2024-01-27T08:08:47;4.60;99.90
10873;DHT22;34586;53.616;10.032;2024-01-27T08:11:17;4.60;99.90
10873;DHT22;34586;53.616;10.032;2024-01-27T08:13:42;4.60;99.90
10873;DHT22;34586;53.616;10.032;2024-01-27T08:16:08;4.60;99.90
10873;DHT22;34586;53.616;10.032;2024-01-27T08:18:41;4.60;99.90
10873;DHT22;34586;53.616;10.032;2024-01-27T08:21:11;4.60;99.90
10873;DHT22;34586;53.616;10.032;2024-01-27T08:23:37;4.50;99.90
10873;DHT22;34586;53.616;10.032;2024-01-27T08:26:03;4.50;99.90
10873;DHT22;34586;53.616;10.032;2024-01-27T08:28:28;4.60;99.90
10873;DHT22;34586;53.616;10.032;2024-01-27T08:30:54;4.60;99.90
10873;DHT22;34586;53.616;10.032;2024-01-27T08:33:20;4.60;99.90
10873;DHT22;34586;53.616;10.032;2024-01-27T08:35:47;4.70;99.90
10873;DHT22;34586;53.616;10.032;2024-01-27T08:38:16;4.60;99.90
10873;DHT22;34586;53.616;10.032;2024-01-27T08:40:41;4.60;99.90
10873;DHT22;34586;53.616;10.032;2024-01-27T08:43:07;4.70;99.90
10873;DHT22;34586;53.616;10.032;2024-01-27T08:45:32;4.70;99.90
10873;DHT22;34586;53.616;10.032;2024-01-27T08:47:58;4.70;99.90
10873;DHT22;34586;53.616;10.032;2024-01-27T08:50:24;4.70;99.90
10873;DHT22;34586;53.616;10.032;2024-01-27T08:52:49;4.80;99.90
10873;DHT22;34586;53.616;10.032;2024-01-27T08:55:15;4.80;99.90
10873;DHT22;34586;53.616;10.032;2024-01-27T08:57:44;4.80;99.90
10873;DHT22;34586;53.616;10.032;2024-01-27T09:00:11;4.80;99.90
10873;DHT22;34586;53.616;10.032;2024-01-27T09:02:38;4.90;99.90
10873;DHT22;34586;53.616;10.032;2024-01-27T09:05:04;4.90;99.90
10873;DHT22;34586;53.616;10.032;2024-01-27T09:07:30;4.90;99.90
10873;DHT22;34586;53.616;10.032;2024-01-27T09:09:56;5.00;99.90
10873;DHT22;34586;53.616;10.032;2024-01-27T09:12:22;5.00;99.90
10873;DHT22;34586;53.616;10.032;2024-01-27T09:14:47;5.00;99.90
10873;DHT22;34586;53.616;10.032;2024-01-27T09:17:13;5.00;99.90
10873;DHT22;34586;53.616;10.032;2024-01-27T09:19:39;5.10;99.90
10873;DHT22;34586;53.616;10.032;2024-01-27T09:22:04;5.10;99.90
10873;DHT22;34586;53.616;10.032;2024-01-27T09:24:30;5.10;99.90
10873;DHT22;34586;53.616;10.032;2024-01-27T09:26:55;5.20;99.90
10873;DHT22;34586;53.616;10.032;2024-01-27T09:29:21;5.10;99.90
10873;DHT22;34586;53.616;10.032;2024-01-27T09:31:46;5.20;99.90
10873;DHT22;34586;53.616;10.032;2024-01-27T09:34:12;5.20;99.90
10873;DHT22;34586;53.616;10.032;2024-01-27T09:36:38;5.20;99.90
10873;DHT22;34586;53.616;10.032;2024-01-27T09:39:03;5.20;99.90
10873;DHT22;34586;53.616;10.032;2024-01-27T09:41:32;5.30;99.90
10873;DHT22;34586;53.616;10.032;2024-01-27T09:44:01;5.30;99.90
10873;DHT22;34586;53.616;10.032;2024-01-27T09:46:29;5.30;99.90
10873;DHT22;34586;53.616;10.032;2024-01-27T09:48:55;5.30;99.90
10873;DHT22;34586;53.616;10.032;2024-01-27T09:51:21;5.40;99.90
10873;DHT22;34586;53.616;10.032;2024-01-27T09:53:48;5.50;99.90
10873;DHT22;34586;53.616;10.032;2024-01-27T09:56:15;5.50;99.90
10873;DHT22;34586;53.616;10.032;2024-01-27T09:58:44;5.60;99.90
10873;DHT22;34586;53.616;10.032;2024-01-27T10:01:10;5.60;99.90
10873;DHT22;34586;53.616;10.032;2024-01-27T10:03:38;5.60;99.90
10873;DHT22;34586;53.616;10.032;2024-01-27T10:06:08;5.70;99.90
10873;DHT22;34586;53.616;10.032;2024-01-27T10:08:33;5.80;99.90
10873;DHT22;34586;53.616;10.032;2024-01-27T10:10:59;5.80;99.90
10873;DHT22;34586;53.616;10.032;2024-01-27T10:13:25;5.80;99.90
10873;DHT22;34586;53.616;10.032;2024-01-27T10:16:04;5.80;99.90
10873;DHT22;34586;53.616;10.032;2024-01-27T10:18:31;5.90;99.90
10873;DHT22;34586;53.616;10.032;2024-01-27T10:20:57;6.00;99.90
10873;DHT22;34586;53.616;10.032;2024-01-27T10:23:23;5.90;99.90
10873;DHT22;34586;53.616;10.032;2024-01-27T10:25:49;6.00;99.90
10873;DHT22;34586;53.616;10.032;2024-01-27T10:28:15;6.00;99.90
10873;DHT22;34586;53.616;10.032;2024-01-27T10:30:41;6.00;99.90
10873;DHT22;34586;53.616;10.032;2024-01-27T10:33:11;6.10;99.90
10873;DHT22;34586;53.616;10.032;2024-01-27T10:35:40;6.10;99.90
10873;DHT22;34586;53.616;10.032;2024-01-27T10:38:06;6.20;99.90
10873;DHT22;34586;53.616;10.032;2024-01-27T10:40:31;6.30;99.90
10873;DHT22;34586;53.616;10.032;2024-01-27T10:43:00;6.30;99.90
10873;DHT22;34586;53.616;10.032;2024-01-27T10:45:27;6.30;99.90
10873;DHT22;34586;53.616;10.032;2024-01-27T10:47:55;6.40;99.90
10873;DHT22;34586;53.616;10.032;2024-01-27T10:50:22;6.50;99.90
10873;DHT22;34586;53.616;10.032;2024-01-27T10:52:50;6.50;99.90
10873;DHT22;34586;53.616;10.032;2024-01-27T10:55:17;6.50;99.90
10873;DHT22;34586;53.616;10.032;2024-01-27T10:57:44;6.60;99.90
10873;DHT22;34586;53.616;10.032;2024-01-27T11:00:11;6.60;99.90
10873;DHT22;34586;53.616;10.032;2024-01-27T11:02:38;6.70;99.90
10873;DHT22;34586;53.616;10.032;2024-01-27T11:05:04;6.70;99.90
10873;DHT22;34586;53.616;10.032;2024-01-27T11:07:32;6.80;99.90
10873;DHT22;34586;53.616;10.032;2024-01-27T11:09:58;6.80;99.90
10873;DHT22;34586;53.616;10.032;2024-01-27T11:12:24;6.90;99.90
10873;DHT22;34586;53.616;10.032;2024-01-27T11:14:51;6.90;99.90
10873;DHT22;34586;53.616;10.032;2024-01-27T11:17:17;6.90;99.90
10873;DHT22;34586;53.616;10.032;2024-01-27T11:19:47;6.80;99.90
10873;DHT22;34586;53.616;10.032;2024-01-27T11:22:29;7.00;99.90
10873;DHT22;34586;53.616;10.032;2024-01-27T11:27:34;7.00;99.90
10873;DHT22;34586;53.616;10.032;2024-01-27T11:30:01;7.00;99.90
10873;DHT22;34586;53.616;10.032;2024-01-27T11:32:26;7.00;99.90
10873;DHT22;34586;53.616;10.032;2024-01-27T11:34:52;7.10;99.90
10873;DHT22;34586;53.616;10.032;2024-01-27T11:37:18;7.20;99.90
10873;DHT22;34586;53.616;10.032;2024-01-27T11:39:49;7.20;99.90
10873;DHT22;34586;53.616;10.032;2024-01-27T11:42:15;7.30;99.90
10873;DHT22;34586;53.616;10.032;2024-01-27T11:44:42;7.40;99.90
10873;DHT22;34586;53.616;10.032;2024-01-27T11:47:34;7.50;99.90
10873;DHT22;34586;53.616;10.032;2024-01-27T11:49:59;7.50;99.90
10873;DHT22;34586;53.616;10.032;2024-01-27T11:52:27;7.50;99.90
10873;DHT22;34586;53.616;10.032;2024-01-27T11:54:57;7.50;99.90
10873;DHT22;34586;53.616;10.032;2024-01-27T11:57:23;7.60;99.90
10873;DHT22;34586;53.616;10.032;2024-01-27T11:59:50;7.60;99.90
10873;DHT22;34586;53.616;10.032;2024-01-27T12:02:16;7.60;99.90
10873;DHT22;34586;53.616;10.032;2024-01-27T12:04:42;7.70;99.90
10873;DHT22;34586;53.616;10.032;2024-01-27T12:07:09;7.70;99.90
10873;DHT22;34586;53.616;10.032;2024-01-27T12:09:36;7.70;99.90
10873;DHT22;34586;53.616;10.032;2024-01-27T12:12:03;7.80;82.10
10873;DHT22;34586;53.616;10.032;2024-01-27T12:14:58;7.80;86.10
10873;DHT22;34586;53.616;10.032;2024-01-27T12:17:25;7.80;75.70
10873;DHT22;34586;53.616;10.032;2024-01-27T12:19:52;7.90;92.40
10873;DHT22;34586;53.616;10.032;2024-01-27T12:22:30;7.90;70.00
10873;DHT22;34586;53.616;10.032;2024-01-27T12:25:08;8.10;42.80
10873;DHT22;34586;53.616;10.032;2024-01-27T12:27:34;8.20;48.50
10873;DHT22;34586;53.616;10.032;2024-01-27T12:30:01;8.20;16.50
10873;DHT22;34586;53.616;10.032;2024-01-27T12:32:26;8.40;48.10
10873;DHT22;34586;53.616;10.032;2024-01-27T12:34:52;8.40;1.00
10873;DHT22;34586;53.616;10.032;2024-01-27T12:37:21;8.40;1.00
10873;DHT22;34586;53.616;10.032;2024-01-27T12:39:47;8.30;9.90
10873;DHT22;34586;53.616;10.032;2024-01-27T12:42:16;8.30;10.30
10873;DHT22;34586;53.616;10.032;2024-01-27T12:44:43;8.40;1.00
10873;DHT22;34586;53.616;10.032;2024-01-27T12:47:11;8.40;1.00
10873;DHT22;34586;53.616;10.032;2024-01-27T12:49:39;8.50;1.00
10873;DHT22;34586;53.616;10.032;2024-01-27T12:52:06;8.60;1.00
10873;DHT22;34586;53.616;10.032;2024-01-27T12:54:32;8.60;1.00
10873;DHT22;34586;53.616;10.032;2024-01-27T12:56:57;8.40;1.00
10873;DHT22;34586;53.616;10.032;2024-01-27T12:59:23;8.60;1.00
10873;DHT22;34586;53.616;10.032;2024-01-27T13:01:49;8.60;15.30
10873;DHT22;34586;53.616;10.032;2024-01-27T13:04:15;8.70;1.00
10873;DHT22;34586;53.616;10.032;2024-01-27T13:06:41;8.70;1.00
10873;DHT22;34586;53.616;10.032;2024-01-27T13:09:08;8.80;1.00
10873;DHT22;34586;53.616;10.032;2024-01-27T13:11:37;8.80;1.00
10873;DHT22;34586;53.616;10.032;2024-01-27T13:14:02;9.00;1.00
10873;DHT22;34586;53.616;10.032;2024-01-27T13:16:28;9.00;1.00
10873;DHT22;34586;53.616;10.032;2024-01-27T13:18:54;8.90;1.00
10873;DHT22;34586;53.616;10.032;2024-01-27T13:21:19;9.00;1.00
10873;DHT22;34586;53.616;10.032;2024-01-27T13:23:45;8.80;1.00
10873;DHT22;34586;53.616;10.032;2024-01-27T13:26:10;8.90;1.00
10873;DHT22;34586;53.616;10.032;2024-01-27T13:28:36;8.80;1.00
10873;DHT22;34586;53.616;10.032;2024-01-27T13:31:01;8.90;1.00
10873;DHT22;34586;53.616;10.032;2024-01-27T13:33:27;8.80;1.00
10873;DHT22;34586;53.616;10.032;2024-01-27T13:35:54;8.70;1.00
10873;DHT22;34586;53.616;10.032;2024-01-27T13:38:20;8.70;1.00
10873;DHT22;34586;53.616;10.032;2024-01-27T13:40:49;8.70;1.00
10873;DHT22;34586;53.616;10.032;2024-01-27T13:43:15;8.70;1.00
10873;DHT22;34586;53.616;10.032;2024-01-27T13:45:41;8.70;1.00
10873;DHT22;34586;53.616;10.032;2024-01-27T13:48:07;8.60;1.00
10873;DHT22;34586;53.616;10.032;2024-01-27T13:50:33;8.60;1.50
10873;DHT22;34586;53.616;10.032;2024-01-27T13:52:59;8.60;25.80
10873;DHT22;34586;53.616;10.032;2024-01-27T13:55:24;8.60;21.20
10873;DHT22;34586;53.616;10.032;2024-01-27T13:57:50;8.50;26.80
10873;DHT22;34586;53.616;10.032;2024-01-27T14:00:16;8.60;57.80
10873;DHT22;34586;53.616;10.032;2024-01-27T14:02:42;8.60;25.50
10873;DHT22;34586;53.616;10.032;2024-01-27T14:05:08;8.50;43.70
10873;DHT22;34586;53.616;10.032;2024-01-27T14:07:35;8.40;88.10
10873;DHT22;34586;53.616;10.032;2024-01-27T14:10:01;8.30;91.00
10873;DHT22;34586;53.616;10.032;2024-01-27T14:12:27;8.30;99.90
10873;DHT22;34586;53.616;10.032;2024-01-27T14:14:52;8.20;99.90
10873;DHT22;34586;53.616;10.032;2024-01-27T14:17:18;8.10;99.90
10873;DHT22;34586;53.616;10.032;2024-01-27T14:19:46;8.10;99.90
10873;DHT22;34586;53.616;10.032;2024-01-27T14:22:13;8.00;99.90
10873;DHT22;34586;53.616;10.032;2024-01-27T14:24:38;8.00;99.90
10873;DHT22;34586;53.616;10.032;2024-01-27T14:27:06;7.90;99.90
10873;DHT22;34586;53.616;10.032;2024-01-27T14:29:33;7.90;99.90
10873;DHT22;34586;53.616;10.032;2024-01-27T14:32:00;7.80;99.90
10873;DHT22;34586;53.616;10.032;2024-01-27T14:34:26;7.80;99.90
10873;DHT22;34586;53.616;10.032;2024-01-27T14:36:52;7.80;99.90
10873;DHT22;34586;53.616;10.032;2024-01-27T14:39:20;7.80;99.90
10873;DHT22;34586;53.616;10.032;2024-01-27T14:41:46;7.70;99.90
10873;DHT22;34586;53.616;10.032;2024-01-27T14:44:11;7.70;99.90
10873;DHT22;34586;53.616;10.032;2024-01-27T14:46:37;7.70;99.90
10873;DHT22;34586;53.616;10.032;2024-01-27T14:49:06;7.60;99.90
10873;DHT22;34586;53.616;10.032;2024-01-27T14:51:33;7.60;99.90
10873;DHT22;34586;53.616;10.032;2024-01-27T14:53:59;7.50;99.90
10873;DHT22;34586;53.616;10.032;2024-01-27T14:56:30;7.60;99.90
10873;DHT22;34586;53.616;10.032;2024-01-27T14:58:55;7.50;99.90
10873;DHT22;34586;53.616;10.032;2024-01-27T15:01:22;7.50;99.90
10873;DHT22;34586;53.616;10.032;2024-01-27T15:03:48;7.40;99.90
10873;DHT22;34586;53.616;10.032;2024-01-27T15:06:14;7.50;99.90
10873;DHT22;34586;53.616;10.032;2024-01-27T15:08:40;7.40;99.90
10873;DHT22;34586;53.616;10.032;2024-01-27T15:11:06;7.40;99.90
10873;DHT22;34586;53.616;10.032;2024-01-27T15:13:32;7.30;99.90
10873;DHT22;34586;53.616;10.032;2024-01-27T15:15:57;7.30;99.90
10873;DHT22;34586;53.616;10.032;2024-01-27T15:18:23;7.30;99.90
10873;DHT22;34586;53.616;10.032;2024-01-27T15:20:49;7.30;99.90
10873;DHT22;34586;53.616;10.032;2024-01-27T15:23:14;7.20;99.90
10873;DHT22;34586;53.616;10.032;2024-01-27T15:25:40;7.20;99.90
10873;DHT22;34586;53.616;10.032;2024-01-27T15:28:06;7.10;99.90
10873;DHT22;34586;53.616;10.032;2024-01-27T15:30:33;7.10;99.90